sensor_id;sensor_type;location;lat;lon;timestamp;P1;durP1;ratioP1;P2;durP2;ratioP2
14665;SDS011;7420;53.574;10.040;2023-04-24T00:01:22;9.52;;;7.05;;
14665;SDS011;7420;53.574;10.040;2023-04-24T00:03:47;11.15;;;7.95;;
14665;SDS011;7420;53.574;10.040;2023-04-24T00:06:13;9.32;;;6.75;;
14665;SDS011;7420;53.574;10.040;2023-04-24T00:08:42;9.07;;;7.22;;
14665;SDS011;7420;53.574;10.040;2023-04-24T00:11:07;8.70;;;6.57;;
14665;SDS011;7420;53.574;10.040;2023-04-24T00:13:34;8.77;;;7.18;;
14665;SDS011;7420;53.574;10.040;2023-04-24T00:15:59;9.07;;;6.30;;
14665;SDS011;7420;53.574;10.040;2023-04-24T00:18:25;7.90;;;6.85;;
14665;SDS011;7420;53.574;10.040;2023-04-24T00:20:50;8.23;;;7.07;;
14665;SDS011;7420;53.574;10.040;2023-04-24T00:23:15;7.90;;;6.15;;
14665;SDS011;7420;53.574;10.040;2023-04-24T00:25:41;8.38;;;6.30;;
14665;SDS011;7420;53.574;10.040;2023-04-24T00:28:06;7.63;;;6.50;;
14665;SDS011;7420;53.574;10.040;2023-04-24T00:30:31;7.70;;;6.07;;
14665;SDS011;7420;53.574;10.040;2023-04-24T00:32:57;8.07;;;6.75;;
14665;SDS011;7420;53.574;10.040;2023-04-24T00:35:22;8.90;;;6.40;;
14665;SDS011;7420;53.574;10.040;2023-04-24T00:37:48;8.63;;;6.82;;
14665;SDS011;7420;53.574;10.040;2023-04-24T00:40:13;7.97;;;5.70;;
14665;SDS011;7420;53.574;10.040;2023-04-24T00:42:39;8.52;;;6.55;;
14665;SDS011;7420;53.574;10.040;2023-04-24T00:45:05;8.98;;;6.47;;
14665;SDS011;7420;53.574;10.040;2023-04-24T00:47:32;8.05;;;6.85;;
14665;SDS011;7420;53.574;10.040;2023-04-24T00:50:00;6.85;;;6.05;;
14665;SDS011;7420;53.574;10.040;2023-04-24T00:52:25;7.50;;;6.68;;
14665;SDS011;7420;53.574;10.040;2023-04-24T00:54:51;8.18;;;6.35;;
14665;SDS011;7420;53.574;10.040;2023-04-24T00:57:16;8.77;;;6.93;;
14665;SDS011;7420;53.574;10.040;2023-04-24T00:59:42;8.25;;;7.13;;
14665;SDS011;7420;53.574;10.040;2023-04-24T01:02:08;7.88;;;5.88;;
14665;SDS011;7420;53.574;10.040;2023-04-24T01:04:35;9.85;;;6.82;;
14665;SDS011;7420;53.574;10.040;2023-04-24T01:07:01;8.75;;;7.32;;
14665;SDS011;7420;53.574;10.040;2023-04-24T01:09:27;9.35;;;6.85;;
14665;SDS011;7420;53.574;10.040;2023-04-24T01:11:53;9.25;;;6.65;;
14665;SDS011;7420;53.574;10.040;2023-04-24T01:14:19;9.77;;;8.23;;
14665;SDS011;7420;53.574;10.040;2023-04-24T01:16:45;11.82;;;7.85;;
14665;SDS011;7420;53.574;10.040;2023-04-24T01:19:10;9.88;;;7.75;;
14665;SDS011;7420;53.574;10.040;2023-04-24T01:21:37;8.48;;;7.05;;
14665;SDS011;7420;53.574;10.040;2023-04-24T01:24:04;11.43;;;7.63;;
14665;SDS011;7420;53.574;10.040;2023-04-24T01:26:30;12.00;;;6.53;;
14665;SDS011;7420;53.574;10.040;2023-04-24T01:28:57;8.85;;;6.40;;
14665;SDS011;7420;53.574;10.040;2023-04-24T01:31:22;7.90;;;6.45;;
14665;SDS011;7420;53.574;10.040;2023-04-24T01:33:48;9.60;;;7.05;;
14665;SDS011;7420;53.574;10.040;2023-04-24T01:36:14;9.10;;;5.97;;
14665;SDS011;7420;53.574;10.040;2023-04-24T01:38:41;6.15;;;5.50;;
14665;SDS011;7420;53.574;10.040;2023-04-24T01:41:06;8.60;;;5.90;;
14665;SDS011;7420;53.574;10.040;2023-04-24T01:43:32;6.03;;;5.20;;
14665;SDS011;7420;53.574;10.040;2023-04-24T01:45:57;7.45;;;5.68;;
14665;SDS011;7420;53.574;10.040;2023-04-24T01:48:23;7.60;;;5.95;;
14665;SDS011;7420;53.574;10.040;2023-04-24T01:50:48;6.60;;;5.00;;
14665;SDS011;7420;53.574;10.040;2023-04-24T01:53:14;6.07;;;5.30;;
14665;SDS011;7420;53.574;10.040;2023-04-24T01:55:40;5.57;;;4.55;;
14665;SDS011;7420;53.574;10.040;2023-04-24T01:58:06;7.53;;;4.53;;
14665;SDS011;7420;53.574;10.040;2023-04-24T02:00:31;6.88;;;4.75;;
14665;SDS011;7420;53.574;10.040;2023-04-24T02:02:57;5.20;;;4.50;;
14665;SDS011;7420;53.574;10.040;2023-04-24T02:05:23;5.18;;;4.55;;
14665;SDS011;7420;53.574;10.040;2023-04-24T02:07:48;6.45;;;5.15;;
14665;SDS011;7420;53.574;10.040;2023-04-24T02:10:13;5.70;;;4.35;;
14665;SDS011;7420;53.574;10.040;2023-04-24T02:12:39;5.72;;;4.03;;
14665;SDS011;7420;53.574;10.040;2023-04-24T02:15:04;4.78;;;3.63;;
14665;SDS011;7420;53.574;10.040;2023-04-24T02:17:30;5.43;;;4.13;;
14665;SDS011;7420;53.574;10.040;2023-04-24T02:19:56;5.70;;;4.13;;
14665;SDS011;7420;53.574;10.040;2023-04-24T02:22:21;5.65;;;5.00;;
14665;SDS011;7420;53.574;10.040;2023-04-24T02:24:47;5.13;;;4.20;;
14665;SDS011;7420;53.574;10.040;2023-04-24T02:27:12;8.27;;;4.22;;
14665;SDS011;7420;53.574;10.040;2023-04-24T02:29:37;8.07;;;4.85;;
14665;SDS011;7420;53.574;10.040;2023-04-24T02:32:03;6.63;;;4.63;;
14665;SDS011;7420;53.574;10.040;2023-04-24T02:34:28;5.50;;;4.25;;
14665;SDS011;7420;53.574;10.040;2023-04-24T02:36:54;5.53;;;4.70;;
14665;SDS011;7420;53.574;10.040;2023-04-24T02:39:19;6.22;;;4.57;;
14665;SDS011;7420;53.574;10.040;2023-04-24T02:41:45;5.55;;;4.15;;
14665;SDS011;7420;53.574;10.040;2023-04-24T02:44:10;4.97;;;4.25;;
14665;SDS011;7420;53.574;10.040;2023-04-24T02:46:36;5.22;;;4.03;;
14665;SDS011;7420;53.574;10.040;2023-04-24T02:49:01;4.63;;;3.40;;
14665;SDS011;7420;53.574;10.040;2023-04-24T02:51:27;3.97;;;3.58;;
14665;SDS011;7420;53.574;10.040;2023-04-24T02:53:53;4.68;;;3.72;;
14665;SDS011;7420;53.574;10.040;2023-04-24T02:56:18;3.85;;;3.42;;
14665;SDS011;7420;53.574;10.040;2023-04-24T02:58:44;6.30;;;3.55;;
14665;SDS011;7420;53.574;10.040;2023-04-24T03:01:09;4.55;;;3.15;;
14665;SDS011;7420;53.574;10.040;2023-04-24T03:03:35;4.43;;;3.78;;
14665;SDS011;7420;53.574;10.040;2023-04-24T03:06:00;3.17;;;2.88;;
14665;SDS011;7420;53.574;10.040;2023-04-24T03:08:26;3.60;;;2.97;;
14665;SDS011;7420;53.574;10.040;2023-04-24T03:10:52;3.28;;;2.97;;
14665;SDS011;7420;53.574;10.040;2023-04-24T03:13:17;3.72;;;3.08;;
14665;SDS011;7420;53.574;10.040;2023-04-24T03:15:42;5.45;;;2.83;;
14665;SDS011;7420;53.574;10.040;2023-04-24T03:18:08;4.00;;;3.33;;
14665;SDS011;7420;53.574;10.040;2023-04-24T03:20:33;4.70;;;2.72;;
14665;SDS011;7420;53.574;10.040;2023-04-24T03:22:58;5.20;;;2.90;;
14665;SDS011;7420;53.574;10.040;2023-04-24T03:25:24;4.05;;;2.53;;
14665;SDS011;7420;53.574;10.040;2023-04-24T03:27:50;3.60;;;2.15;;
14665;SDS011;7420;53.574;10.040;2023-04-24T03:30:15;3.90;;;3.17;;
14665;SDS011;7420;53.574;10.040;2023-04-24T03:32:40;4.18;;;2.42;;
14665;SDS011;7420;53.574;10.040;2023-04-24T03:35:06;4.60;;;3.17;;
14665;SDS011;7420;53.574;10.040;2023-04-24T03:37:33;3.35;;;3.05;;
14665;SDS011;7420;53.574;10.040;2023-04-24T03:39:58;3.20;;;2.40;;
14665;SDS011;7420;53.574;10.040;2023-04-24T03:42:24;3.20;;;2.38;;
14665;SDS011;7420;53.574;10.040;2023-04-24T03:44:49;2.60;;;2.17;;
14665;SDS011;7420;53.574;10.040;2023-04-24T03:47:15;3.78;;;2.72;;
14665;SDS011;7420;53.574;10.040;2023-04-24T03:49:40;3.00;;;2.33;;
14665;SDS011;7420;53.574;10.040;2023-04-24T03:52:05;4.22;;;2.70;;
14665;SDS011;7420;53.574;10.040;2023-04-24T03:54:31;3.00;;;2.47;;
14665;SDS011;7420;53.574;10.040;2023-04-24T03:56:56;3.20;;;2.60;;
14665;SDS011;7420;53.574;10.040;2023-04-24T03:59:22;3.55;;;2.58;;
14665;SDS011;7420;53.574;10.040;2023-04-24T04:01:49;3.72;;;2.55;;
14665;SDS011;7420;53.574;10.040;2023-04-24T04:04:14;2.90;;;2.10;;
14665;SDS011;7420;53.574;10.040;2023-04-24T04:06:40;5.05;;;2.80;;
14665;SDS011;7420;53.574;10.040;2023-04-24T04:09:05;3.80;;;2.60;;
14665;SDS011;7420;53.574;10.040;2023-04-24T04:11:32;5.88;;;2.40;;
14665;SDS011;7420;53.574;10.040;2023-04-24T04:13:57;2.97;;;2.47;;
14665;SDS011;7420;53.574;10.040;2023-04-24T04:16:22;3.30;;;2.53;;
14665;SDS011;7420;53.574;10.040;2023-04-24T04:18:48;2.33;;;2.13;;
14665;SDS011;7420;53.574;10.040;2023-04-24T04:21:19;2.65;;;2.40;;
14665;SDS011;7420;53.574;10.040;2023-04-24T04:23:44;2.95;;;2.20;;
14665;SDS011;7420;53.574;10.040;2023-04-24T04:26:10;2.80;;;2.20;;
14665;SDS011;7420;53.574;10.040;2023-04-24T04:28:37;3.17;;;2.35;;
14665;SDS011;7420;53.574;10.040;2023-04-24T04:31:04;2.50;;;2.30;;
14665;SDS011;7420;53.574;10.040;2023-04-24T04:33:29;2.25;;;2.05;;
14665;SDS011;7420;53.574;10.040;2023-04-24T04:35:54;2.40;;;2.05;;
14665;SDS011;7420;53.574;10.040;2023-04-24T04:38:21;3.40;;;2.10;;
14665;SDS011;7420;53.574;10.040;2023-04-24T04:40:47;2.03;;;1.90;;
14665;SDS011;7420;53.574;10.040;2023-04-24T04:43:12;2.60;;;2.00;;
14665;SDS011;7420;53.574;10.040;2023-04-24T04:45:39;3.55;;;2.00;;
14665;SDS011;7420;53.574;10.040;2023-04-24T04:48:06;3.42;;;2.22;;
14665;SDS011;7420;53.574;10.040;2023-04-24T04:50:33;3.83;;;3.33;;
14665;SDS011;7420;53.574;10.040;2023-04-24T04:52:59;4.13;;;2.53;;
14665;SDS011;7420;53.574;10.040;2023-04-24T04:55:25;2.38;;;2.17;;
14665;SDS011;7420;53.574;10.040;2023-04-24T04:57:51;2.15;;;1.92;;
14665;SDS011;7420;53.574;10.040;2023-04-24T05:00:16;4.53;;;2.30;;
14665;SDS011;7420;53.574;10.040;2023-04-24T05:02:42;2.45;;;1.98;;
14665;SDS011;7420;53.574;10.040;2023-04-24T05:05:07;3.00;;;2.17;;
14665;SDS011;7420;53.574;10.040;2023-04-24T05:07:33;2.50;;;2.10;;
14665;SDS011;7420;53.574;10.040;2023-04-24T05:09:59;2.88;;;2.60;;
14665;SDS011;7420;53.574;10.040;2023-04-24T05:12:24;3.58;;;2.90;;
14665;SDS011;7420;53.574;10.040;2023-04-24T05:14:50;2.85;;;2.42;;
14665;SDS011;7420;53.574;10.040;2023-04-24T05:17:15;2.70;;;2.15;;
14665;SDS011;7420;53.574;10.040;2023-04-24T05:19:41;2.67;;;2.33;;
14665;SDS011;7420;53.574;10.040;2023-04-24T05:22:06;3.10;;;2.05;;
14665;SDS011;7420;53.574;10.040;2023-04-24T05:24:32;2.28;;;1.98;;
14665;SDS011;7420;53.574;10.040;2023-04-24T05:26:59;3.25;;;2.10;;
14665;SDS011;7420;53.574;10.040;2023-04-24T05:29:24;2.78;;;2.00;;
14665;SDS011;7420;53.574;10.040;2023-04-24T05:31:51;4.00;;;2.05;;
14665;SDS011;7420;53.574;10.040;2023-04-24T05:34:17;2.90;;;2.05;;
14665;SDS011;7420;53.574;10.040;2023-04-24T05:36:42;3.47;;;1.85;;
14665;SDS011;7420;53.574;10.040;2023-04-24T05:39:08;2.13;;;1.65;;
14665;SDS011;7420;53.574;10.040;2023-04-24T05:41:33;2.55;;;1.90;;
14665;SDS011;7420;53.574;10.040;2023-04-24T05:43:59;2.75;;;1.77;;
14665;SDS011;7420;53.574;10.040;2023-04-24T05:46:24;2.10;;;1.90;;
14665;SDS011;7420;53.574;10.040;2023-04-24T05:48:50;3.80;;;1.63;;
14665;SDS011;7420;53.574;10.040;2023-04-24T05:51:15;2.50;;;1.77;;
14665;SDS011;7420;53.574;10.040;2023-04-24T05:53:41;2.28;;;1.60;;
14665;SDS011;7420;53.574;10.040;2023-04-24T05:56:06;2.45;;;2.00;;
14665;SDS011;7420;53.574;10.040;2023-04-24T05:58:31;1.95;;;1.77;;
14665;SDS011;7420;53.574;10.040;2023-04-24T06:00:57;2.25;;;2.00;;
14665;SDS011;7420;53.574;10.040;2023-04-24T06:03:23;2.92;;;2.00;;
14665;SDS011;7420;53.574;10.040;2023-04-24T06:05:52;3.05;;;2.15;;
14665;SDS011;7420;53.574;10.040;2023-04-24T06:08:18;2.72;;;2.10;;
14665;SDS011;7420;53.574;10.040;2023-04-24T06:10:44;2.50;;;2.00;;
14665;SDS011;7420;53.574;10.040;2023-04-24T06:13:09;2.78;;;2.30;;
14665;SDS011;7420;53.574;10.040;2023-04-24T06:15:34;3.05;;;2.33;;
14665;SDS011;7420;53.574;10.040;2023-04-24T06:18:00;4.03;;;2.08;;
14665;SDS011;7420;53.574;10.040;2023-04-24T06:20:25;1.98;;;1.77;;
14665;SDS011;7420;53.574;10.040;2023-04-24T06:22:51;3.65;;;1.80;;
14665;SDS011;7420;53.574;10.040;2023-04-24T06:25:16;2.95;;;1.75;;
14665;SDS011;7420;53.574;10.040;2023-04-24T06:27:42;1.70;;;1.58;;
14665;SDS011;7420;53.574;10.040;2023-04-24T06:30:07;2.15;;;1.95;;
14665;SDS011;7420;53.574;10.040;2023-04-24T06:32:33;1.83;;;1.73;;
14665;SDS011;7420;53.574;10.040;2023-04-24T06:34:58;2.20;;;1.80;;
14665;SDS011;7420;53.574;10.040;2023-04-24T06:37:24;2.88;;;1.90;;
14665;SDS011;7420;53.574;10.040;2023-04-24T06:39:49;3.00;;;1.75;;
14665;SDS011;7420;53.574;10.040;2023-04-24T06:42:15;1.83;;;1.73;;
14665;SDS011;7420;53.574;10.040;2023-04-24T06:44:40;2.17;;;1.85;;
14665;SDS011;7420;53.574;10.040;2023-04-24T06:47:09;2.22;;;1.90;;
14665;SDS011;7420;53.574;10.040;2023-04-24T06:49:35;2.00;;;1.88;;
14665;SDS011;7420;53.574;10.040;2023-04-24T06:52:02;1.70;;;1.60;;
14665;SDS011;7420;53.574;10.040;2023-04-24T06:54:28;2.13;;;1.70;;
14665;SDS011;7420;53.574;10.040;2023-04-24T06:56:54;2.75;;;1.80;;
14665;SDS011;7420;53.574;10.040;2023-04-24T06:59:20;2.47;;;2.00;;
14665;SDS011;7420;53.574;10.040;2023-04-24T07:01:46;2.47;;;2.28;;
14665;SDS011;7420;53.574;10.040;2023-04-24T07:04:11;2.42;;;2.10;;
14665;SDS011;7420;53.574;10.040;2023-04-24T07:06:37;2.38;;;2.17;;
14665;SDS011;7420;53.574;10.040;2023-04-24T07:09:04;2.80;;;2.00;;
14665;SDS011;7420;53.574;10.040;2023-04-24T07:11:29;4.50;;;2.53;;
14665;SDS011;7420;53.574;10.040;2023-04-24T07:13:55;2.92;;;2.42;;
14665;SDS011;7420;53.574;10.040;2023-04-24T07:16:21;3.15;;;2.60;;
14665;SDS011;7420;53.574;10.040;2023-04-24T07:18:46;3.60;;;3.15;;
14665;SDS011;7420;53.574;10.040;2023-04-24T07:21:12;4.55;;;2.95;;
14665;SDS011;7420;53.574;10.040;2023-04-24T07:23:37;3.42;;;3.10;;
14665;SDS011;7420;53.574;10.040;2023-04-24T07:26:03;3.45;;;2.78;;
14665;SDS011;7420;53.574;10.040;2023-04-24T07:28:37;4.85;;;2.83;;
14665;SDS011;7420;53.574;10.040;2023-04-24T07:33:28;2.88;;;2.50;;
14665;SDS011;7420;53.574;10.040;2023-04-24T07:35:53;6.90;;;3.38;;
14665;SDS011;7420;53.574;10.040;2023-04-24T07:38:19;3.83;;;3.53;;
14665;SDS011;7420;53.574;10.040;2023-04-24T07:40:48;4.03;;;3.20;;
14665;SDS011;7420;53.574;10.040;2023-04-24T07:43:14;5.95;;;4.07;;
14665;SDS011;7420;53.574;10.040;2023-04-24T07:45:39;4.38;;;3.60;;
14665;SDS011;7420;53.574;10.040;2023-04-24T07:48:05;3.40;;;3.10;;
14665;SDS011;7420;53.574;10.040;2023-04-24T07:50:31;4.20;;;3.45;;
14665;SDS011;7420;53.574;10.040;2023-04-24T07:52:56;3.88;;;3.58;;
14665;SDS011;7420;53.574;10.040;2023-04-24T07:55:22;4.82;;;4.40;;
14665;SDS011;7420;53.574;10.040;2023-04-24T07:57:47;3.85;;;3.50;;
14665;SDS011;7420;53.574;10.040;2023-04-24T08:00:13;5.07;;;3.50;;
14665;SDS011;7420;53.574;10.040;2023-04-24T08:02:39;4.28;;;3.63;;
14665;SDS011;7420;53.574;10.040;2023-04-24T08:05:05;4.85;;;4.10;;
14665;SDS011;7420;53.574;10.040;2023-04-24T08:07:31;4.47;;;4.03;;
14665;SDS011;7420;53.574;10.040;2023-04-24T08:09:56;5.82;;;5.30;;
14665;SDS011;7420;53.574;10.040;2023-04-24T08:12:22;5.35;;;4.05;;
14665;SDS011;7420;53.574;10.040;2023-04-24T08:14:47;4.50;;;4.10;;
14665;SDS011;7420;53.574;10.040;2023-04-24T08:17:13;4.70;;;4.25;;
14665;SDS011;7420;53.574;10.040;2023-04-24T08:19:39;5.32;;;4.18;;
14665;SDS011;7420;53.574;10.040;2023-04-24T08:22:08;6.60;;;5.10;;
14665;SDS011;7420;53.574;10.040;2023-04-24T08:24:33;7.32;;;5.30;;
14665;SDS011;7420;53.574;10.040;2023-04-24T08:26:58;5.72;;;5.07;;
14665;SDS011;7420;53.574;10.040;2023-04-24T08:29:24;5.55;;;4.95;;
14665;SDS011;7420;53.574;10.040;2023-04-24T08:31:50;5.28;;;4.15;;
14665;SDS011;7420;53.574;10.040;2023-04-24T08:34:15;9.43;;;5.35;;
14665;SDS011;7420;53.574;10.040;2023-04-24T08:36:40;5.03;;;4.50;;
14665;SDS011;7420;53.574;10.040;2023-04-24T08:39:06;4.72;;;4.25;;
14665;SDS011;7420;53.574;10.040;2023-04-24T08:41:33;7.05;;;5.65;;
14665;SDS011;7420;53.574;10.040;2023-04-24T08:43:59;5.57;;;4.50;;
14665;SDS011;7420;53.574;10.040;2023-04-24T08:46:27;5.40;;;4.72;;
14665;SDS011;7420;53.574;10.040;2023-04-24T08:48:54;5.75;;;5.18;;
14665;SDS011;7420;53.574;10.040;2023-04-24T08:51:21;8.23;;;5.68;;
14665;SDS011;7420;53.574;10.040;2023-04-24T08:53:47;5.43;;;4.65;;
14665;SDS011;7420;53.574;10.040;2023-04-24T08:56:13;8.45;;;5.30;;
14665;SDS011;7420;53.574;10.040;2023-04-24T08:58:39;5.82;;;5.20;;
14665;SDS011;7420;53.574;10.040;2023-04-24T09:01:05;6.57;;;4.65;;
14665;SDS011;7420;53.574;10.040;2023-04-24T09:03:32;5.63;;;4.57;;
14665;SDS011;7420;53.574;10.040;2023-04-24T09:05:58;7.22;;;4.95;;
14665;SDS011;7420;53.574;10.040;2023-04-24T09:08:25;7.40;;;5.70;;
14665;SDS011;7420;53.574;10.040;2023-04-24T09:10:51;5.97;;;5.00;;
14665;SDS011;7420;53.574;10.040;2023-04-24T09:13:17;6.28;;;5.60;;
14665;SDS011;7420;53.574;10.040;2023-04-24T09:15:44;7.35;;;6.15;;
14665;SDS011;7420;53.574;10.040;2023-04-24T09:18:10;5.85;;;5.25;;
14665;SDS011;7420;53.574;10.040;2023-04-24T09:20:35;5.93;;;5.20;;
14665;SDS011;7420;53.574;10.040;2023-04-24T09:23:33;8.30;;;5.93;;
14665;SDS011;7420;53.574;10.040;2023-04-24T09:25:59;7.32;;;5.90;;
14665;SDS011;7420;53.574;10.040;2023-04-24T09:28:46;5.72;;;5.07;;
14665;SDS011;7420;53.574;10.040;2023-04-24T09:31:17;5.88;;;5.38;;
14665;SDS011;7420;53.574;10.040;2023-04-24T09:33:56;5.45;;;4.65;;
14665;SDS011;7420;53.574;10.040;2023-04-24T09:36:30;6.07;;;5.10;;
14665;SDS011;7420;53.574;10.040;2023-04-24T09:39:02;7.15;;;5.38;;
14665;SDS011;7420;53.574;10.040;2023-04-24T09:41:29;7.15;;;5.72;;
14665;SDS011;7420;53.574;10.040;2023-04-24T09:43:55;8.25;;;6.57;;
14665;SDS011;7420;53.574;10.040;2023-04-24T09:46:28;6.60;;;5.00;;
14665;SDS011;7420;53.574;10.040;2023-04-24T09:48:57;5.35;;;4.68;;
14665;SDS011;7420;53.574;10.040;2023-04-24T09:51:33;6.13;;;5.30;;
14665;SDS011;7420;53.574;10.040;2023-04-24T09:54:01;10.30;;;6.30;;
14665;SDS011;7420;53.574;10.040;2023-04-24T09:56:27;5.97;;;4.95;;
14665;SDS011;7420;53.574;10.040;2023-04-24T09:58:53;8.82;;;6.35;;
14665;SDS011;7420;53.574;10.040;2023-04-24T10:01:31;6.05;;;5.22;;
14665;SDS011;7420;53.574;10.040;2023-04-24T10:03:57;8.52;;;6.72;;
14665;SDS011;7420;53.574;10.040;2023-04-24T10:06:22;7.07;;;6.32;;
14665;SDS011;7420;53.574;10.040;2023-04-24T10:08:47;6.80;;;4.93;;
14665;SDS011;7420;53.574;10.040;2023-04-24T10:11:15;8.38;;;7.20;;
14665;SDS011;7420;53.574;10.040;2023-04-24T10:13:41;7.03;;;5.70;;
14665;SDS011;7420;53.574;10.040;2023-04-24T10:16:07;11.35;;;6.63;;
14665;SDS011;7420;53.574;10.040;2023-04-24T10:18:32;9.50;;;6.85;;
14665;SDS011;7420;53.574;10.040;2023-04-24T10:20:59;12.88;;;7.45;;
14665;SDS011;7420;53.574;10.040;2023-04-24T10:23:25;9.07;;;7.45;;
14665;SDS011;7420;53.574;10.040;2023-04-24T10:25:50;7.88;;;6.88;;
14665;SDS011;7420;53.574;10.040;2023-04-24T10:28:16;10.85;;;8.55;;
14665;SDS011;7420;53.574;10.040;2023-04-24T10:30:43;9.68;;;7.35;;
14665;SDS011;7420;53.574;10.040;2023-04-24T10:33:10;9.32;;;8.27;;
14665;SDS011;7420;53.574;10.040;2023-04-24T10:35:38;9.63;;;8.63;;
14665;SDS011;7420;53.574;10.040;2023-04-24T10:38:07;11.65;;;8.88;;
14665;SDS011;7420;53.574;10.040;2023-04-24T10:40:37;10.77;;;8.38;;
14665;SDS011;7420;53.574;10.040;2023-04-24T10:43:06;13.15;;;7.22;;
14665;SDS011;7420;53.574;10.040;2023-04-24T10:45:34;10.80;;;8.75;;
14665;SDS011;7420;53.574;10.040;2023-04-24T10:48:04;13.63;;;9.27;;
14665;SDS011;7420;53.574;10.040;2023-04-24T10:50:42;10.27;;;8.48;;
14665;SDS011;7420;53.574;10.040;2023-04-24T10:53:17;14.48;;;9.73;;
14665;SDS011;7420;53.574;10.040;2023-04-24T10:55:45;11.25;;;8.68;;
14665;SDS011;7420;53.574;10.040;2023-04-24T10:58:49;12.82;;;8.88;;
14665;SDS011;7420;53.574;10.040;2023-04-24T11:01:27;10.85;;;8.30;;
14665;SDS011;7420;53.574;10.040;2023-04-24T11:03:58;12.05;;;8.77;;
14665;SDS011;7420;53.574;10.040;2023-04-24T11:06:37;10.98;;;9.23;;
14665;SDS011;7420;53.574;10.040;2023-04-24T11:09:09;14.70;;;9.20;;
14665;SDS011;7420;53.574;10.040;2023-04-24T11:11:38;11.68;;;7.35;;
14665;SDS011;7420;53.574;10.040;2023-04-24T11:14:09;13.30;;;9.13;;
14665;SDS011;7420;53.574;10.040;2023-04-24T11:24:39;10.70;;;8.55;;
14665;SDS011;7420;53.574;10.040;2023-04-24T11:27:14;12.35;;;8.73;;
14665;SDS011;7420;53.574;10.040;2023-04-24T11:29:48;10.52;;;7.95;;
14665;SDS011;7420;53.574;10.040;2023-04-24T11:34:53;11.82;;;9.60;;
14665;SDS011;7420;53.574;10.040;2023-04-24T11:37:24;12.65;;;9.25;;
14665;SDS011;7420;53.574;10.040;2023-04-24T11:39:53;10.63;;;8.07;;
14665;SDS011;7420;53.574;10.040;2023-04-24T11:42:21;12.38;;;9.43;;
14665;SDS011;7420;53.574;10.040;2023-04-24T11:44:47;10.13;;;8.00;;
14665;SDS011;7420;53.574;10.040;2023-04-24T11:47:14;10.43;;;8.77;;
14665;SDS011;7420;53.574;10.040;2023-04-24T11:49:40;9.90;;;7.75;;
14665;SDS011;7420;53.574;10.040;2023-04-24T11:52:05;12.15;;;8.68;;
14665;SDS011;7420;53.574;10.040;2023-04-24T11:54:31;10.32;;;7.70;;
14665;SDS011;7420;53.574;10.040;2023-04-24T11:56:57;7.78;;;6.88;;
14665;SDS011;7420;53.574;10.040;2023-04-24T11:59:22;8.43;;;6.10;;
14665;SDS011;7420;53.574;10.040;2023-04-24T12:01:48;8.50;;;6.28;;
14665;SDS011;7420;53.574;10.040;2023-04-24T12:04:15;8.70;;;6.07;;
14665;SDS011;7420;53.574;10.040;2023-04-24T12:07:00;9.02;;;6.75;;
14665;SDS011;7420;53.574;10.040;2023-04-24T12:09:39;7.82;;;6.38;;
14665;SDS011;7420;53.574;10.040;2023-04-24T12:12:06;9.07;;;7.22;;
14665;SDS011;7420;53.574;10.040;2023-04-24T12:14:31;8.27;;;6.63;;
14665;SDS011;7420;53.574;10.040;2023-04-24T12:16:57;8.63;;;6.95;;
14665;SDS011;7420;53.574;10.040;2023-04-24T12:19:22;8.32;;;6.47;;
14665;SDS011;7420;53.574;10.040;2023-04-24T12:22:01;9.13;;;6.60;;
14665;SDS011;7420;53.574;10.040;2023-04-24T12:24:28;9.65;;;7.28;;
14665;SDS011;7420;53.574;10.040;2023-04-24T12:26:55;6.82;;;6.13;;
14665;SDS011;7420;53.574;10.040;2023-04-24T12:29:21;8.52;;;6.80;;
14665;SDS011;7420;53.574;10.040;2023-04-24T12:31:47;7.03;;;5.30;;
14665;SDS011;7420;53.574;10.040;2023-04-24T12:34:23;6.65;;;5.97;;
14665;SDS011;7420;53.574;10.040;2023-04-24T12:36:50;7.65;;;6.82;;
14665;SDS011;7420;53.574;10.040;2023-04-24T12:39:16;8.60;;;6.78;;
14665;SDS011;7420;53.574;10.040;2023-04-24T12:42:25;15.80;;;8.07;;
14665;SDS011;7420;53.574;10.040;2023-04-24T12:44:36;8.85;;;7.28;;
14665;SDS011;7420;53.574;10.040;2023-04-24T12:47:02;9.25;;;6.68;;
14665;SDS011;7420;53.574;10.040;2023-04-24T12:49:27;9.35;;;7.50;;
14665;SDS011;7420;53.574;10.040;2023-04-24T12:51:55;8.45;;;6.82;;
14665;SDS011;7420;53.574;10.040;2023-04-24T12:54:20;8.07;;;6.22;;
14665;SDS011;7420;53.574;10.040;2023-04-24T12:56:46;8.10;;;6.60;;
14665;SDS011;7420;53.574;10.040;2023-04-24T12:59:12;8.43;;;6.45;;
14665;SDS011;7420;53.574;10.040;2023-04-24T13:01:37;7.68;;;6.40;;
14665;SDS011;7420;53.574;10.040;2023-04-24T13:04:02;9.45;;;7.05;;
14665;SDS011;7420;53.574;10.040;2023-04-24T13:06:28;9.27;;;6.30;;
14665;SDS011;7420;53.574;10.040;2023-04-24T13:08:53;7.20;;;6.47;;
14665;SDS011;7420;53.574;10.040;2023-04-24T13:11:20;7.80;;;6.47;;
14665;SDS011;7420;53.574;10.040;2023-04-24T13:13:46;8.43;;;6.82;;
14665;SDS011;7420;53.574;10.040;2023-04-24T13:16:12;8.90;;;7.15;;
14665;SDS011;7420;53.574;10.040;2023-04-24T13:18:37;8.98;;;7.68;;
14665;SDS011;7420;53.574;10.040;2023-04-24T13:21:03;12.35;;;7.43;;
14665;SDS011;7420;53.574;10.040;2023-04-24T13:23:28;8.07;;;7.25;;
14665;SDS011;7420;53.574;10.040;2023-04-24T13:25:54;7.55;;;6.15;;
14665;SDS011;7420;53.574;10.040;2023-04-24T13:28:22;10.57;;;7.50;;
14665;SDS011;7420;53.574;10.040;2023-04-24T13:30:48;8.80;;;7.85;;
14665;SDS011;7420;53.574;10.040;2023-04-24T13:33:13;7.97;;;6.80;;
14665;SDS011;7420;53.574;10.040;2023-04-24T13:35:39;7.07;;;6.38;;
14665;SDS011;7420;53.574;10.040;2023-04-24T13:38:04;8.10;;;6.40;;
14665;SDS011;7420;53.574;10.040;2023-04-24T13:40:31;8.80;;;6.32;;
14665;SDS011;7420;53.574;10.040;2023-04-24T13:42:57;8.65;;;6.30;;
14665;SDS011;7420;53.574;10.040;2023-04-24T13:45:22;8.52;;;6.40;;
14665;SDS011;7420;53.574;10.040;2023-04-24T13:47:48;6.80;;;5.72;;
14665;SDS011;7420;53.574;10.040;2023-04-24T13:50:13;8.55;;;6.13;;
14665;SDS011;7420;53.574;10.040;2023-04-24T13:52:38;6.88;;;5.53;;
14665;SDS011;7420;53.574;10.040;2023-04-24T13:55:04;7.25;;;6.43;;
14665;SDS011;7420;53.574;10.040;2023-04-24T13:57:29;7.32;;;6.60;;
14665;SDS011;7420;53.574;10.040;2023-04-24T13:59:56;7.10;;;5.80;;
14665;SDS011;7420;53.574;10.040;2023-04-24T14:02:26;7.32;;;6.18;;
14665;SDS011;7420;53.574;10.040;2023-04-24T14:04:51;7.05;;;5.97;;
14665;SDS011;7420;53.574;10.040;2023-04-24T14:07:17;5.32;;;4.82;;
14665;SDS011;7420;53.574;10.040;2023-04-24T14:09:42;6.32;;;5.60;;
14665;SDS011;7420;53.574;10.040;2023-04-24T14:12:07;5.82;;;5.28;;
14665;SDS011;7420;53.574;10.040;2023-04-24T14:14:33;6.75;;;6.05;;
14665;SDS011;7420;53.574;10.040;2023-04-24T14:16:58;6.53;;;5.88;;
14665;SDS011;7420;53.574;10.040;2023-04-24T14:19:24;6.13;;;5.40;;
14665;SDS011;7420;53.574;10.040;2023-04-24T14:21:49;5.90;;;5.30;;
14665;SDS011;7420;53.574;10.040;2023-04-24T14:24:15;6.25;;;4.70;;
14665;SDS011;7420;53.574;10.040;2023-04-24T14:26:40;6.28;;;5.10;;
14665;SDS011;7420;53.574;10.040;2023-04-24T14:29:06;5.70;;;4.95;;
14665;SDS011;7420;53.574;10.040;2023-04-24T14:31:31;6.00;;;5.07;;
14665;SDS011;7420;53.574;10.040;2023-04-24T14:33:56;6.10;;;5.43;;
14665;SDS011;7420;53.574;10.040;2023-04-24T14:36:22;5.82;;;5.22;;
14665;SDS011;7420;53.574;10.040;2023-04-24T14:38:48;5.85;;;4.47;;
14665;SDS011;7420;53.574;10.040;2023-04-24T14:41:14;6.35;;;5.18;;
14665;SDS011;7420;53.574;10.040;2023-04-24T14:43:39;5.78;;;4.25;;
14665;SDS011;7420;53.574;10.040;2023-04-24T14:46:05;5.95;;;4.60;;
14665;SDS011;7420;53.574;10.040;2023-04-24T14:48:30;4.82;;;4.30;;
14665;SDS011;7420;53.574;10.040;2023-04-24T14:50:56;7.72;;;6.70;;
14665;SDS011;7420;53.574;10.040;2023-04-24T14:53:21;9.73;;;8.15;;
14665;SDS011;7420;53.574;10.040;2023-04-24T14:55:47;9.35;;;7.65;;